sensor_id;sensor_type;location;lat;lon;timestamp;P1;durP1;ratioP1;P2;durP2;ratioP2
66680;SDS011;53575;51.366;12.350;2023-06-26T00:00:08;0.10;;;0.10;;
66680;SDS011;53575;51.366;12.350;2023-06-26T00:02:34;0.10;;;0.10;;
66680;SDS011;53575;51.366;12.350;2023-06-26T00:04:59;0.10;;;0.10;;
66680;SDS011;53575;51.366;12.350;2023-06-26T00:07:27;0.10;;;0.10;;
66680;SDS011;53575;51.366;12.350;2023-06-26T00:09:53;0.10;;;0.10;;
66680;SDS011;53575;51.366;12.350;2023-06-26T00:12:19;0.10;;;0.10;;
66680;SDS011;53575;51.366;12.350;2023-06-26T00:14:44;0.10;;;0.10;;
66680;SDS011;53575;51.366;12.350;2023-06-26T00:17:11;0.32;;;0.32;;
66680;SDS011;53575;51.366;12.350;2023-06-26T00:19:36;0.10;;;0.10;;
66680;SDS011;53575;51.366;12.350;2023-06-26T00:22:02;0.10;;;0.10;;
66680;SDS011;53575;51.366;12.350;2023-06-26T00:24:27;0.20;;;0.20;;
66680;SDS011;53575;51.366;12.350;2023-06-26T00:26:53;0.17;;;0.17;;
66680;SDS011;53575;51.366;12.350;2023-06-26T00:29:18;0.10;;;0.10;;
66680;SDS011;53575;51.366;12.350;2023-06-26T00:31:44;0.10;;;0.10;;
66680;SDS011;53575;51.366;12.350;2023-06-26T00:34:09;0.10;;;0.10;;
66680;SDS011;53575;51.366;12.350;2023-06-26T00:36:34;0.10;;;0.10;;
66680;SDS011;53575;51.366;12.350;2023-06-26T00:39:00;0.10;;;0.10;;
66680;SDS011;53575;51.366;12.350;2023-06-26T00:41:25;0.10;;;0.10;;
66680;SDS011;53575;51.366;12.350;2023-06-26T00:43:51;0.10;;;0.10;;
66680;SDS011;53575;51.366;12.350;2023-06-26T00:46:16;0.85;;;0.85;;
66680;SDS011;53575;51.366;12.350;2023-06-26T00:48:42;0.10;;;0.10;;
66680;SDS011;53575;51.366;12.350;2023-06-26T00:51:08;0.10;;;0.10;;
66680;SDS011;53575;51.366;12.350;2023-06-26T00:53:34;0.10;;;0.10;;
66680;SDS011;53575;51.366;12.350;2023-06-26T00:56:00;0.10;;;0.10;;
66680;SDS011;53575;51.366;12.350;2023-06-26T00:58:27;0.10;;;0.10;;
66680;SDS011;53575;51.366;12.350;2023-06-26T01:00:52;0.10;;;0.10;;
66680;SDS011;53575;51.366;12.350;2023-06-26T01:03:19;0.10;;;0.10;;
66680;SDS011;53575;51.366;12.350;2023-06-26T01:05:46;0.10;;;0.10;;
66680;SDS011;53575;51.366;12.350;2023-06-26T01:08:15;0.10;;;0.10;;
66680;SDS011;53575;51.366;12.350;2023-06-26T01:10:41;0.10;;;0.10;;
66680;SDS011;53575;51.366;12.350;2023-06-26T01:13:07;0.10;;;0.10;;
66680;SDS011;53575;51.366;12.350;2023-06-26T01:15:33;0.10;;;0.10;;
66680;SDS011;53575;51.366;12.350;2023-06-26T01:17:59;0.10;;;0.10;;
66680;SDS011;53575;51.366;12.350;2023-06-26T01:20:26;0.10;;;0.10;;
66680;SDS011;53575;51.366;12.350;2023-06-26T01:28:06;0.10;;;0.10;;
66680;SDS011;53575;51.366;12.350;2023-06-26T01:30:34;0.10;;;0.10;;
66680;SDS011;53575;51.366;12.350;2023-06-26T01:33:05;0.10;;;0.10;;
66680;SDS011;53575;51.366;12.350;2023-06-26T01:35:30;0.10;;;0.10;;
66680;SDS011;53575;51.366;12.350;2023-06-26T01:40:41;0.10;;;0.10;;
66680;SDS011;53575;51.366;12.350;2023-06-26T01:43:09;0.10;;;0.10;;
66680;SDS011;53575;51.366;12.350;2023-06-26T01:45:41;0.10;;;0.10;;
66680;SDS011;53575;51.366;12.350;2023-06-26T01:48:10;0.10;;;0.10;;
66680;SDS011;53575;51.366;12.350;2023-06-26T01:50:37;0.10;;;0.10;;
66680;SDS011;53575;51.366;12.350;2023-06-26T01:53:10;0.10;;;0.10;;
66680;SDS011;53575;51.366;12.350;2023-06-26T01:58:13;0.10;;;0.10;;
66680;SDS011;53575;51.366;12.350;2023-06-26T02:00:41;0.10;;;0.10;;
66680;SDS011;53575;51.366;12.350;2023-06-26T02:03:07;0.10;;;0.10;;
66680;SDS011;53575;51.366;12.350;2023-06-26T02:05:33;0.10;;;0.10;;
66680;SDS011;53575;51.366;12.350;2023-06-26T02:07:58;0.10;;;0.10;;
66680;SDS011;53575;51.366;12.350;2023-06-26T02:10:26;0.10;;;0.10;;
66680;SDS011;53575;51.366;12.350;2023-06-26T02:12:51;0.10;;;0.10;;
66680;SDS011;53575;51.366;12.350;2023-06-26T02:15:17;0.10;;;0.10;;
66680;SDS011;53575;51.366;12.350;2023-06-26T02:17:42;0.10;;;0.10;;
66680;SDS011;53575;51.366;12.350;2023-06-26T02:20:08;0.10;;;0.10;;
66680;SDS011;53575;51.366;12.350;2023-06-26T02:22:35;0.10;;;0.10;;
66680;SDS011;53575;51.366;12.350;2023-06-26T02:25:01;0.10;;;0.10;;
66680;SDS011;53575;51.366;12.350;2023-06-26T02:27:27;0.10;;;0.10;;
66680;SDS011;53575;51.366;12.350;2023-06-26T02:29:52;0.10;;;0.10;;
66680;SDS011;53575;51.366;12.350;2023-06-26T02:32:18;0.10;;;0.10;;
66680;SDS011;53575;51.366;12.350;2023-06-26T02:34:43;0.10;;;0.10;;
66680;SDS011;53575;51.366;12.350;2023-06-26T02:37:08;0.10;;;0.10;;
66680;SDS011;53575;51.366;12.350;2023-06-26T02:39:35;0.10;;;0.10;;
66680;SDS011;53575;51.366;12.350;2023-06-26T02:42:01;0.10;;;0.10;;
66680;SDS011;53575;51.366;12.350;2023-06-26T02:44:26;0.10;;;0.10;;
66680;SDS011;53575;51.366;12.350;2023-06-26T02:46:52;0.17;;;0.17;;
66680;SDS011;53575;51.366;12.350;2023-06-26T02:49:17;0.10;;;0.10;;
66680;SDS011;53575;51.366;12.350;2023-06-26T02:51:42;0.10;;;0.10;;
66680;SDS011;53575;51.366;12.350;2023-06-26T02:54:08;0.10;;;0.10;;
66680;SDS011;53575;51.366;12.350;2023-06-26T02:56:34;0.10;;;0.10;;
66680;SDS011;53575;51.366;12.350;2023-06-26T02:58:59;0.10;;;0.10;;
66680;SDS011;53575;51.366;12.350;2023-06-26T03:01:24;0.10;;;0.10;;
66680;SDS011;53575;51.366;12.350;2023-06-26T03:03:50;0.10;;;0.10;;
66680;SDS011;53575;51.366;12.350;2023-06-26T03:06:16;0.10;;;0.10;;
66680;SDS011;53575;51.366;12.350;2023-06-26T03:08:42;0.10;;;0.10;;
66680;SDS011;53575;51.366;12.350;2023-06-26T03:11:07;0.10;;;0.10;;
66680;SDS011;53575;51.366;12.350;2023-06-26T03:13:34;0.13;;;0.13;;
66680;SDS011;53575;51.366;12.350;2023-06-26T03:16:00;0.10;;;0.10;;
66680;SDS011;53575;51.366;12.350;2023-06-26T03:18:25;0.10;;;0.10;;
66680;SDS011;53575;51.366;12.350;2023-06-26T03:20:51;0.10;;;0.10;;
66680;SDS011;53575;51.366;12.350;2023-06-26T03:23:19;0.10;;;0.10;;
66680;SDS011;53575;51.366;12.350;2023-06-26T03:25:45;0.10;;;0.10;;
66680;SDS011;53575;51.366;12.350;2023-06-26T03:28:10;0.20;;;0.20;;
66680;SDS011;53575;51.366;12.350;2023-06-26T03:30:36;0.10;;;0.10;;
66680;SDS011;53575;51.366;12.350;2023-06-26T03:33:01;0.10;;;0.10;;
66680;SDS011;53575;51.366;12.350;2023-06-26T03:35:27;0.10;;;0.10;;
66680;SDS011;53575;51.366;12.350;2023-06-26T03:37:52;0.10;;;0.10;;
66680;SDS011;53575;51.366;12.350;2023-06-26T03:40:18;0.15;;;0.15;;
66680;SDS011;53575;51.366;12.350;2023-06-26T03:42:43;0.10;;;0.10;;
66680;SDS011;53575;51.366;12.350;2023-06-26T03:45:09;0.10;;;0.10;;
66680;SDS011;53575;51.366;12.350;2023-06-26T03:47:34;0.10;;;0.10;;
66680;SDS011;53575;51.366;12.350;2023-06-26T03:49:59;0.10;;;0.10;;
66680;SDS011;53575;51.366;12.350;2023-06-26T03:52:25;0.10;;;0.10;;
66680;SDS011;53575;51.366;12.350;2023-06-26T03:54:50;0.10;;;0.10;;
66680;SDS011;53575;51.366;12.350;2023-06-26T03:57:16;0.10;;;0.10;;
66680;SDS011;53575;51.366;12.350;2023-06-26T03:59:41;0.10;;;0.10;;
66680;SDS011;53575;51.366;12.350;2023-06-26T04:02:07;0.10;;;0.10;;
66680;SDS011;53575;51.366;12.350;2023-06-26T04:04:32;0.10;;;0.10;;
66680;SDS011;53575;51.366;12.350;2023-06-26T04:06:57;0.10;;;0.10;;
66680;SDS011;53575;51.366;12.350;2023-06-26T04:09:24;0.10;;;0.10;;
66680;SDS011;53575;51.366;12.350;2023-06-26T04:12:08;0.10;;;0.10;;
66680;SDS011;53575;51.366;12.350;2023-06-26T04:14:34;0.10;;;0.10;;
66680;SDS011;53575;51.366;12.350;2023-06-26T04:16:59;0.10;;;0.10;;
66680;SDS011;53575;51.366;12.350;2023-06-26T04:19:28;0.10;;;0.10;;
66680;SDS011;53575;51.366;12.350;2023-06-26T04:21:53;0.10;;;0.10;;
66680;SDS011;53575;51.366;12.350;2023-06-26T04:24:19;0.10;;;0.10;;
66680;SDS011;53575;51.366;12.350;2023-06-26T04:26:45;0.10;;;0.10;;
66680;SDS011;53575;51.366;12.350;2023-06-26T04:29:10;0.10;;;0.10;;
66680;SDS011;53575;51.366;12.350;2023-06-26T04:31:36;0.20;;;0.20;;
66680;SDS011;53575;51.366;12.350;2023-06-26T04:34:01;0.10;;;0.10;;
66680;SDS011;53575;51.366;12.350;2023-06-26T04:36:27;0.10;;;0.10;;
66680;SDS011;53575;51.366;12.350;2023-06-26T04:38:53;0.10;;;0.10;;
66680;SDS011;53575;51.366;12.350;2023-06-26T04:41:19;0.10;;;0.10;;
66680;SDS011;53575;51.366;12.350;2023-06-26T04:43:45;0.10;;;0.10;;
66680;SDS011;53575;51.366;12.350;2023-06-26T04:46:10;0.10;;;0.10;;
66680;SDS011;53575;51.366;12.350;2023-06-26T04:48:35;0.10;;;0.10;;
66680;SDS011;53575;51.366;12.350;2023-06-26T04:51:01;0.10;;;0.10;;
66680;SDS011;53575;51.366;12.350;2023-06-26T04:53:26;0.10;;;0.10;;
66680;SDS011;53575;51.366;12.350;2023-06-26T04:55:52;0.10;;;0.10;;
66680;SDS011;53575;51.366;12.350;2023-06-26T04:58:18;0.10;;;0.10;;
66680;SDS011;53575;51.366;12.350;2023-06-26T05:00:44;0.10;;;0.10;;
66680;SDS011;53575;51.366;12.350;2023-06-26T05:03:13;0.10;;;0.10;;
66680;SDS011;53575;51.366;12.350;2023-06-26T05:05:40;0.10;;;0.10;;
66680;SDS011;53575;51.366;12.350;2023-06-26T05:08:21;0.20;;;0.20;;
66680;SDS011;53575;51.366;12.350;2023-06-26T05:10:49;0.10;;;0.10;;
66680;SDS011;53575;51.366;12.350;2023-06-26T05:13:14;0.10;;;0.10;;
66680;SDS011;53575;51.366;12.350;2023-06-26T05:15:43;0.10;;;0.10;;
66680;SDS011;53575;51.366;12.350;2023-06-26T05:18:08;0.10;;;0.10;;
66680;SDS011;53575;51.366;12.350;2023-06-26T05:20:34;0.10;;;0.10;;
66680;SDS011;53575;51.366;12.350;2023-06-26T05:23:04;0.10;;;0.10;;
66680;SDS011;53575;51.366;12.350;2023-06-26T05:27:56;0.10;;;0.10;;
66680;SDS011;53575;51.366;12.350;2023-06-26T05:30:23;0.10;;;0.10;;
66680;SDS011;53575;51.366;12.350;2023-06-26T05:32:51;0.10;;;0.10;;
66680;SDS011;53575;51.366;12.350;2023-06-26T05:35:17;0.10;;;0.10;;
66680;SDS011;53575;51.366;12.350;2023-06-26T05:37:45;0.10;;;0.10;;
66680;SDS011;53575;51.366;12.350;2023-06-26T05:40:12;0.10;;;0.10;;
66680;SDS011;53575;51.366;12.350;2023-06-26T05:42:38;0.10;;;0.10;;
66680;SDS011;53575;51.366;12.350;2023-06-26T05:45:04;0.10;;;0.10;;
66680;SDS011;53575;51.366;12.350;2023-06-26T05:47:30;0.10;;;0.10;;
66680;SDS011;53575;51.366;12.350;2023-06-26T05:49:55;0.10;;;0.10;;
66680;SDS011;53575;51.366;12.350;2023-06-26T05:52:21;0.10;;;0.10;;
66680;SDS011;53575;51.366;12.350;2023-06-26T05:54:47;0.10;;;0.10;;
66680;SDS011;53575;51.366;12.350;2023-06-26T05:57:12;0.10;;;0.10;;
66680;SDS011;53575;51.366;12.350;2023-06-26T05:59:39;0.10;;;0.10;;
66680;SDS011;53575;51.366;12.350;2023-06-26T06:02:06;0.10;;;0.10;;
66680;SDS011;53575;51.366;12.350;2023-06-26T06:04:31;0.10;;;0.10;;
66680;SDS011;53575;51.366;12.350;2023-06-26T06:06:56;0.10;;;0.10;;
66680;SDS011;53575;51.366;12.350;2023-06-26T06:09:22;0.10;;;0.10;;
66680;SDS011;53575;51.366;12.350;2023-06-26T06:11:47;0.10;;;0.10;;
66680;SDS011;53575;51.366;12.350;2023-06-26T06:14:13;0.20;;;0.20;;
66680;SDS011;53575;51.366;12.350;2023-06-26T06:16:38;0.10;;;0.10;;
66680;SDS011;53575;51.366;12.350;2023-06-26T06:19:03;0.20;;;0.20;;
66680;SDS011;53575;51.366;12.350;2023-06-26T06:21:32;0.10;;;0.10;;
66680;SDS011;53575;51.366;12.350;2023-06-26T06:23:57;0.10;;;0.10;;
66680;SDS011;53575;51.366;12.350;2023-06-26T06:26:22;0.10;;;0.10;;
66680;SDS011;53575;51.366;12.350;2023-06-26T06:28:48;0.10;;;0.10;;
66680;SDS011;53575;51.366;12.350;2023-06-26T06:31:14;0.10;;;0.10;;
66680;SDS011;53575;51.366;12.350;2023-06-26T06:33:39;0.13;;;0.13;;
66680;SDS011;53575;51.366;12.350;2023-06-26T06:36:04;0.10;;;0.10;;
66680;SDS011;53575;51.366;12.350;2023-06-26T06:38:30;0.10;;;0.10;;
66680;SDS011;53575;51.366;12.350;2023-06-26T06:40:56;0.10;;;0.10;;
66680;SDS011;53575;51.366;12.350;2023-06-26T06:43:21;0.10;;;0.10;;
66680;SDS011;53575;51.366;12.350;2023-06-26T06:45:47;0.10;;;0.10;;
66680;SDS011;53575;51.366;12.350;2023-06-26T06:48:12;0.10;;;0.10;;
66680;SDS011;53575;51.366;12.350;2023-06-26T06:50:38;0.28;;;0.28;;
66680;SDS011;53575;51.366;12.350;2023-06-26T06:53:03;0.63;;;0.63;;
66680;SDS011;53575;51.366;12.350;2023-06-26T06:55:29;0.30;;;0.30;;
66680;SDS011;53575;51.366;12.350;2023-06-26T06:57:54;0.28;;;0.28;;
66680;SDS011;53575;51.366;12.350;2023-06-26T07:00:19;0.10;;;0.10;;
66680;SDS011;53575;51.366;12.350;2023-06-26T07:02:45;0.57;;;0.55;;
66680;SDS011;53575;51.366;12.350;2023-06-26T07:05:11;0.10;;;0.10;;
66680;SDS011;53575;51.366;12.350;2023-06-26T07:07:37;0.10;;;0.10;;
66680;SDS011;53575;51.366;12.350;2023-06-26T07:10:05;0.10;;;0.10;;
66680;SDS011;53575;51.366;12.350;2023-06-26T07:12:35;0.10;;;0.10;;
66680;SDS011;53575;51.366;12.350;2023-06-26T07:15:02;0.10;;;0.10;;
66680;SDS011;53575;51.366;12.350;2023-06-26T07:17:29;0.10;;;0.10;;
66680;SDS011;53575;51.366;12.350;2023-06-26T07:19:55;0.10;;;0.10;;
66680;SDS011;53575;51.366;12.350;2023-06-26T07:22:21;0.88;;;0.80;;
66680;SDS011;53575;51.366;12.350;2023-06-26T07:24:47;0.15;;;0.15;;
66680;SDS011;53575;51.366;12.350;2023-06-26T07:27:15;0.10;;;0.10;;
66680;SDS011;53575;51.366;12.350;2023-06-26T07:29:43;0.25;;;0.25;;
66680;SDS011;53575;51.366;12.350;2023-06-26T07:32:08;0.45;;;0.45;;
66680;SDS011;53575;51.366;12.350;2023-06-26T07:34:34;0.10;;;0.10;;
66680;SDS011;53575;51.366;12.350;2023-06-26T07:40:22;0.10;;;0.10;;
66680;SDS011;53575;51.366;12.350;2023-06-26T07:42:47;0.10;;;0.10;;
66680;SDS011;53575;51.366;12.350;2023-06-26T07:45:13;0.10;;;0.10;;
66680;SDS011;53575;51.366;12.350;2023-06-26T07:47:39;1.50;;;1.40;;
66680;SDS011;53575;51.366;12.350;2023-06-26T07:50:05;0.10;;;0.10;;
66680;SDS011;53575;51.366;12.350;2023-06-26T07:52:31;0.57;;;0.57;;
66680;SDS011;53575;51.366;12.350;2023-06-26T07:54:56;0.60;;;0.60;;
66680;SDS011;53575;51.366;12.350;2023-06-26T07:57:22;0.10;;;0.10;;
66680;SDS011;53575;51.366;12.350;2023-06-26T07:59:48;0.10;;;0.10;;
66680;SDS011;53575;51.366;12.350;2023-06-26T08:02:13;0.00;;;0.00;;
66680;SDS011;53575;51.366;12.350;2023-06-26T08:04:39;0.10;;;0.10;;
66680;SDS011;53575;51.366;12.350;2023-06-26T08:07:04;0.10;;;0.10;;
66680;SDS011;53575;51.366;12.350;2023-06-26T08:09:30;0.20;;;0.20;;
66680;SDS011;53575;51.366;12.350;2023-06-26T08:11:56;0.10;;;0.10;;
66680;SDS011;53575;51.366;12.350;2023-06-26T08:14:22;0.10;;;0.10;;
66680;SDS011;53575;51.366;12.350;2023-06-26T08:16:49;0.10;;;0.10;;
66680;SDS011;53575;51.366;12.350;2023-06-26T08:19:15;0.10;;;0.10;;
66680;SDS011;53575;51.366;12.350;2023-06-26T08:21:41;0.10;;;0.10;;
66680;SDS011;53575;51.366;12.350;2023-06-26T08:24:11;0.45;;;0.45;;
66680;SDS011;53575;51.366;12.350;2023-06-26T08:26:38;0.38;;;0.38;;
66680;SDS011;53575;51.366;12.350;2023-06-26T08:29:04;0.40;;;0.40;;
66680;SDS011;53575;51.366;12.350;2023-06-26T08:31:33;0.10;;;0.10;;
66680;SDS011;53575;51.366;12.350;2023-06-26T08:34:03;0.10;;;0.10;;
66680;SDS011;53575;51.366;12.350;2023-06-26T08:36:29;0.68;;;0.68;;
66680;SDS011;53575;51.366;12.350;2023-06-26T08:38:55;0.10;;;0.10;;
66680;SDS011;53575;51.366;12.350;2023-06-26T08:41:21;0.10;;;0.10;;
66680;SDS011;53575;51.366;12.350;2023-06-26T08:43:47;0.10;;;0.10;;
66680;SDS011;53575;51.366;12.350;2023-06-26T08:46:15;0.00;;;0.00;;
66680;SDS011;53575;51.366;12.350;2023-06-26T08:48:41;0.10;;;0.10;;
66680;SDS011;53575;51.366;12.350;2023-06-26T08:51:14;0.10;;;0.10;;
66680;SDS011;53575;51.366;12.350;2023-06-26T08:56:14;0.08;;;0.08;;
66680;SDS011;53575;51.366;12.350;2023-06-26T08:58:42;0.03;;;0.03;;
66680;SDS011;53575;51.366;12.350;2023-06-26T09:01:09;0.10;;;0.10;;
66680;SDS011;53575;51.366;12.350;2023-06-26T09:03:35;0.00;;;0.00;;
66680;SDS011;53575;51.366;12.350;2023-06-26T09:06:01;0.03;;;0.03;;
66680;SDS011;53575;51.366;12.350;2023-06-26T09:08:27;0.10;;;0.10;;
66680;SDS011;53575;51.366;12.350;2023-06-26T09:10:52;0.43;;;0.43;;
66680;SDS011;53575;51.366;12.350;2023-06-26T09:13:18;0.03;;;0.03;;
66680;SDS011;53575;51.366;12.350;2023-06-26T09:15:44;0.10;;;0.10;;
66680;SDS011;53575;51.366;12.350;2023-06-26T09:18:10;0.00;;;0.00;;
66680;SDS011;53575;51.366;12.350;2023-06-26T09:20:36;0.00;;;0.00;;
66680;SDS011;53575;51.366;12.350;2023-06-26T09:23:02;0.10;;;0.10;;
66680;SDS011;53575;51.366;12.350;2023-06-26T09:25:28;0.00;;;0.00;;
66680;SDS011;53575;51.366;12.350;2023-06-26T09:27:54;0.00;;;0.00;;
66680;SDS011;53575;51.366;12.350;2023-06-26T09:30:20;0.10;;;0.10;;
66680;SDS011;53575;51.366;12.350;2023-06-26T09:32:46;0.00;;;0.00;;
66680;SDS011;53575;51.366;12.350;2023-06-26T09:35:12;0.03;;;0.03;;
66680;SDS011;53575;51.366;12.350;2023-06-26T09:37:37;0.75;;;0.75;;
66680;SDS011;53575;51.366;12.350;2023-06-26T09:40:04;0.45;;;0.45;;
66680;SDS011;53575;51.366;12.350;2023-06-26T09:42:30;0.40;;;0.40;;
66680;SDS011;53575;51.366;12.350;2023-06-26T09:44:56;0.95;;;0.38;;
66680;SDS011;53575;51.366;12.350;2023-06-26T09:47:22;0.25;;;0.25;;
66680;SDS011;53575;51.366;12.350;2023-06-26T09:49:47;0.08;;;0.08;;
66680;SDS011;53575;51.366;12.350;2023-06-26T09:52:16;0.20;;;0.20;;
66680;SDS011;53575;51.366;12.350;2023-06-26T09:54:42;2.00;;;0.35;;
66680;SDS011;53575;51.366;12.350;2023-06-26T09:57:18;0.10;;;0.10;;
66680;SDS011;53575;51.366;12.350;2023-06-26T09:59:44;0.00;;;0.00;;
66680;SDS011;53575;51.366;12.350;2023-06-26T10:02:12;0.30;;;0.30;;
66680;SDS011;53575;51.366;12.350;2023-06-26T10:04:38;0.00;;;0.00;;
66680;SDS011;53575;51.366;12.350;2023-06-26T10:07:11;0.20;;;0.20;;
66680;SDS011;53575;51.366;12.350;2023-06-26T10:09:40;0.00;;;0.00;;
66680;SDS011;53575;51.366;12.350;2023-06-26T10:12:07;0.10;;;0.10;;
66680;SDS011;53575;51.366;12.350;2023-06-26T10:14:42;0.20;;;0.20;;
66680;SDS011;53575;51.366;12.350;2023-06-26T10:17:13;0.10;;;0.10;;
66680;SDS011;53575;51.366;12.350;2023-06-26T10:19:43;0.00;;;0.00;;
66680;SDS011;53575;51.366;12.350;2023-06-26T10:22:09;0.17;;;0.17;;
66680;SDS011;53575;51.366;12.350;2023-06-26T10:24:39;0.00;;;0.00;;
66680;SDS011;53575;51.366;12.350;2023-06-26T10:27:12;0.20;;;0.20;;
66680;SDS011;53575;51.366;12.350;2023-06-26T10:29:47;0.00;;;0.00;;
66680;SDS011;53575;51.366;12.350;2023-06-26T10:32:17;0.20;;;0.20;;
66680;SDS011;53575;51.366;12.350;2023-06-26T10:34:43;0.15;;;0.15;;
66680;SDS011;53575;51.366;12.350;2023-06-26T10:37:09;0.20;;;0.20;;
66680;SDS011;53575;51.366;12.350;2023-06-26T10:39:50;0.10;;;0.10;;
66680;SDS011;53575;51.366;12.350;2023-06-26T10:42:19;0.47;;;0.47;;
66680;SDS011;53575;51.366;12.350;2023-06-26T10:45:08;0.32;;;0.32;;
66680;SDS011;53575;51.366;12.350;2023-06-26T10:47:36;0.00;;;0.00;;
66680;SDS011;53575;51.366;12.350;2023-06-26T11:03:39;0.40;;;0.40;;
66680;SDS011;53575;51.366;12.350;2023-06-26T11:06:12;0.43;;;0.43;;
66680;SDS011;53575;51.366;12.350;2023-06-26T11:08:52;0.00;;;0.00;;
66680;SDS011;53575;51.366;12.350;2023-06-26T11:11:18;0.10;;;0.10;;
66680;SDS011;53575;51.366;12.350;2023-06-26T11:13:45;0.52;;;0.52;;
66680;SDS011;53575;51.366;12.350;2023-06-26T11:16:12;0.00;;;0.00;;
66680;SDS011;53575;51.366;12.350;2023-06-26T11:18:39;0.00;;;0.00;;
66680;SDS011;53575;51.366;12.350;2023-06-26T11:21:06;0.10;;;0.10;;
66680;SDS011;53575;51.366;12.350;2023-06-26T11:23:32;0.38;;;0.20;;
66680;SDS011;53575;51.366;12.350;2023-06-26T11:26:20;0.10;;;0.10;;
66680;SDS011;53575;51.366;12.350;2023-06-26T11:28:51;0.15;;;0.15;;
66680;SDS011;53575;51.366;12.350;2023-06-26T11:33:57;0.20;;;0.20;;
66680;SDS011;53575;51.366;12.350;2023-06-26T11:36:24;0.00;;;0.00;;
66680;SDS011;53575;51.366;12.350;2023-06-26T11:39:01;0.00;;;0.00;;
66680;SDS011;53575;51.366;12.350;2023-06-26T11:41:37;0.38;;;0.30;;
66680;SDS011;53575;51.366;12.350;2023-06-26T11:44:07;0.00;;;0.00;;
66680;SDS011;53575;51.366;12.350;2023-06-26T11:46:35;0.00;;;0.00;;
66680;SDS011;53575;51.366;12.350;2023-06-26T11:49:04;0.20;;;0.20;;
66680;SDS011;53575;51.366;12.350;2023-06-26T11:51:32;1.63;;;0.65;;
66680;SDS011;53575;51.366;12.350;2023-06-26T11:54:02;0.00;;;0.00;;
66680;SDS011;53575;51.366;12.350;2023-06-26T11:56:29;0.00;;;0.00;;
66680;SDS011;53575;51.366;12.350;2023-06-26T11:58:59;0.15;;;0.15;;
66680;SDS011;53575;51.366;12.350;2023-06-26T12:01:25;0.20;;;0.20;;
66680;SDS011;53575;51.366;12.350;2023-06-26T12:03:59;0.20;;;0.20;;
66680;SDS011;53575;51.366;12.350;2023-06-26T12:06:26;0.27;;;0.27;;
66680;SDS011;53575;51.366;12.350;2023-06-26T12:08:53;0.10;;;0.10;;
66680;SDS011;53575;51.366;12.350;2023-06-26T12:11:20;0.00;;;0.00;;
66680;SDS011;53575;51.366;12.350;2023-06-26T12:13:48;0.00;;;0.00;;
66680;SDS011;53575;51.366;12.350;2023-06-26T12:16:14;0.00;;;0.00;;
66680;SDS011;53575;51.366;12.350;2023-06-26T12:18:40;0.00;;;0.00;;
66680;SDS011;53575;51.366;12.350;2023-06-26T12:21:06;2.75;;;2.65;;
66680;SDS011;53575;51.366;12.350;2023-06-26T12:23:32;0.00;;;0.00;;
66680;SDS011;53575;51.366;12.350;2023-06-26T12:26:16;0.00;;;0.00;;
66680;SDS011;53575;51.366;12.350;2023-06-26T12:28:45;0.00;;;0.00;;
66680;SDS011;53575;51.366;12.350;2023-06-26T12:31:12;0.00;;;0.00;;
66680;SDS011;53575;51.366;12.350;2023-06-26T12:33:44;0.00;;;0.00;;
66680;SDS011;53575;51.366;12.350;2023-06-26T12:36:10;1.27;;;1.17;;
66680;SDS011;53575;51.366;12.350;2023-06-26T12:38:39;5.03;;;4.22;;
66680;SDS011;53575;51.366;12.350;2023-06-26T12:41:11;4.78;;;4.28;;
66680;SDS011;53575;51.366;12.350;2023-06-26T12:43:38;4.50;;;4.10;;
66680;SDS011;53575;51.366;12.350;2023-06-26T12:46:04;5.57;;;4.22;;
66680;SDS011;53575;51.366;12.350;2023-06-26T12:48:39;4.78;;;4.32;;
66680;SDS011;53575;51.366;12.350;2023-06-26T12:51:17;4.15;;;3.75;;
66680;SDS011;53575;51.366;12.350;2023-06-26T12:53:43;6.45;;;4.65;;
66680;SDS011;53575;51.366;12.350;2023-06-26T12:56:09;8.13;;;4.50;;
66680;SDS011;53575;51.366;12.350;2023-06-26T12:58:36;22.45;;;20.25;;
66680;SDS011;53575;51.366;12.350;2023-06-26T13:01:03;9.73;;;8.75;;
66680;SDS011;53575;51.366;12.350;2023-06-26T13:03:29;24.57;;;10.27;;
66680;SDS011;53575;51.366;12.350;2023-06-26T13:05:55;6.53;;;4.85;;
66680;SDS011;53575;51.366;12.350;2023-06-26T13:08:20;6.35;;;4.53;;
66680;SDS011;53575;51.366;12.350;2023-06-26T13:10:46;4.68;;;4.15;;
66680;SDS011;53575;51.366;12.350;2023-06-26T13:13:11;6.45;;;4.72;;
66680;SDS011;53575;51.366;12.350;2023-06-26T13:15:37;5.85;;;4.68;;
66680;SDS011;53575;51.366;12.350;2023-06-26T13:18:02;6.57;;;4.63;;
66680;SDS011;53575;51.366;12.350;2023-06-26T13:20:28;4.53;;;4.13;;
66680;SDS011;53575;51.366;12.350;2023-06-26T13:22:53;4.82;;;4.25;;
66680;SDS011;53575;51.366;12.350;2023-06-26T13:25:19;4.20;;;3.70;;
66680;SDS011;53575;51.366;12.350;2023-06-26T13:27:45;4.97;;;4.22;;
66680;SDS011;53575;51.366;12.350;2023-06-26T13:30:11;6.38;;;4.13;;
66680;SDS011;53575;51.366;12.350;2023-06-26T13:32:37;11.95;;;5.10;;
66680;SDS011;53575;51.366;12.350;2023-06-26T13:35:02;8.57;;;5.22;;
66680;SDS011;53575;51.366;12.350;2023-06-26T13:37:29;7.20;;;4.63;;
66680;SDS011;53575;51.366;12.350;2023-06-26T13:39:54;8.07;;;4.72;;
66680;SDS011;53575;51.366;12.350;2023-06-26T13:42:20;4.50;;;4.10;;
66680;SDS011;53575;51.366;12.350;2023-06-26T13:44:46;10.63;;;4.63;;
66680;SDS011;53575;51.366;12.350;2023-06-26T13:47:12;6.75;;;4.50;;
66680;SDS011;53575;51.366;12.350;2023-06-26T13:49:40;7.43;;;4.50;;
66680;SDS011;53575;51.366;12.350;2023-06-26T13:52:05;6.05;;;4.15;;
66680;SDS011;53575;51.366;12.350;2023-06-26T13:54:34;7.80;;;4.97;;
66680;SDS011;53575;51.366;12.350;2023-06-26T13:57:01;5.38;;;4.88;;
66680;SDS011;53575;51.366;12.350;2023-06-26T13:59:27;6.97;;;4.10;;
66680;SDS011;53575;51.366;12.350;2023-06-26T14:01:53;6.32;;;4.90;;
66680;SDS011;53575;51.366;12.350;2023-06-26T14:04:19;21.05;;;5.60;;
66680;SDS011;53575;51.366;12.350;2023-06-26T14:06:46;2.40;;;1.48;;
66680;SDS011;53575;51.366;12.350;2023-06-26T14:09:12;3.03;;;2.45;;
66680;SDS011;53575;51.366;12.350;2023-06-26T14:11:38;2.38;;;1.85;;
66680;SDS011;53575;51.366;12.350;2023-06-26T14:14:04;0.30;;;0.30;;
66680;SDS011;53575;51.366;12.350;2023-06-26T14:16:29;1.10;;;1.00;;
66680;SDS011;53575;51.366;12.350;2023-06-26T14:18:55;1.95;;;1.35;;
66680;SDS011;53575;51.366;12.350;2023-06-26T14:21:21;1.55;;;1.45;;
66680;SDS011;53575;51.366;12.350;2023-06-26T14:23:47;0.52;;;0.52;;
66680;SDS011;53575;51.366;12.350;2023-06-26T14:26:12;1.25;;;1.17;;
66680;SDS011;53575;51.366;12.350;2023-06-26T14:28:38;0.10;;;0.10;;
66680;SDS011;53575;51.366;12.350;2023-06-26T14:31:04;0.73;;;0.73;;
66680;SDS011;53575;51.366;12.350;2023-06-26T14:33:30;1.48;;;1.45;;
66680;SDS011;53575;51.366;12.350;2023-06-26T14:35:56;2.10;;;1.35;;
66680;SDS011;53575;51.366;12.350;2023-06-26T14:38:21;4.55;;;2.45;;
66680;SDS011;53575;51.366;12.350;2023-06-26T14:40:47;1.35;;;1.25;;
66680;SDS011;53575;51.366;12.350;2023-06-26T14:43:13;1.58;;;1.48;;
66680;SDS011;53575;51.366;12.350;2023-06-26T14:45:38;2.90;;;2.13;;
66680;SDS011;53575;51.366;12.350;2023-06-26T14:48:03;1.27;;;1.17;;
66680;SDS011;53575;51.366;12.350;2023-06-26T14:50:29;2.38;;;2.17;;
66680;SDS011;53575;51.366;12.350;2023-06-26T14:52:55;4.25;;;2.50;;
66680;SDS011;53575;51.366;12.350;2023-06-26T14:55:20;20.63;;;3.17;;
66680;SDS011;53575;51.366;12.350;2023-06-26T14:57:46;1.05;;;0.98;;
66680;SDS011;53575;51.366;12.350;2023-06-26T15:00:11;1.88;;;1.35;;
66680;SDS011;53575;51.366;12.350;2023-06-26T15:02:37;3.20;;;2.55;;
66680;SDS011;53575;51.366;12.350;2023-06-26T15:05:02;1.08;;;0.90;;